ASA634 KONT-PAJN
Flight info
| Callsign | ASA634 |
|---|---|
| Flight time | N/A |
| Altitude | 36000 |
| Route | SNSHN5 EHF DCT CZQ DCT OED/N0455F380 J1 DREWS DCT ONP DCT SEFIX DCT PR DCT HOODS DCT NIMLE DCT |
| Aircraft | B737/M-SDE2E3FGHIRWXY/LB1 |
Departure
| Time | N/A |
|---|---|
| Airport | Ontario International Airport (KONT) |
Arrival
| Time | 2026-04-29 21:41 |
|---|---|
| Airport | Juneau International Airport (PAJN) |
| Time | Latitude | Longitude | Altitude | Speed | Heading |
|---|---|---|---|---|---|
| 2026-04-29 19:33 | 45.86072 | -124.83110 | 36335 ft | 405 kts | 334° |
| 2026-04-29 19:34 | 45.91250 | -124.86292 | 36333 ft | 405 kts | 334° |
| 2026-04-29 19:34 | 45.96430 | -124.89479 | 36349 ft | 405 kts | 334° |
| 2026-04-29 19:35 | 46.01610 | -124.92675 | 36343 ft | 405 kts | 334° |
| 2026-04-29 19:35 | 46.06776 | -124.95872 | 36342 ft | 404 kts | 334° |
| 2026-04-29 19:36 | 46.11938 | -124.99071 | 36336 ft | 403 kts | 334° |
| 2026-04-29 19:36 | 46.16222 | -125.01730 | 36338 ft | 403 kts | 334° |
| 2026-04-29 19:37 | 46.21376 | -125.04936 | 36349 ft | 403 kts | 334° |
| 2026-04-29 19:37 | 46.26535 | -125.08152 | 36347 ft | 404 kts | 334° |
| 2026-04-29 19:38 | 46.31696 | -125.11376 | 36346 ft | 404 kts | 334° |
| 2026-04-29 19:38 | 46.36859 | -125.14606 | 36340 ft | 405 kts | 334° |
| 2026-04-29 19:39 | 46.42031 | -125.17850 | 36349 ft | 405 kts | 334° |
| 2026-04-29 19:39 | 46.47208 | -125.21104 | 36352 ft | 406 kts | 334° |
| 2026-04-29 19:40 | 46.52390 | -125.24367 | 36349 ft | 406 kts | 334° |
| 2026-04-29 19:40 | 46.57538 | -125.27614 | 36372 ft | 407 kts | 334° |
| 2026-04-29 19:41 | 46.62723 | -125.30893 | 36353 ft | 406 kts | 334° |
| 2026-04-29 19:41 | 46.67900 | -125.34174 | 36357 ft | 405 kts | 334° |
| 2026-04-29 19:42 | 46.73068 | -125.37456 | 36363 ft | 405 kts | 334° |
| 2026-04-29 19:42 | 46.78231 | -125.40742 | 36354 ft | 405 kts | 334° |
| 2026-04-29 19:43 | 46.83396 | -125.44035 | 36356 ft | 405 kts | 334° |
| 2026-04-29 19:43 | 46.88563 | -125.47338 | 36364 ft | 405 kts | 334° |
| 2026-04-29 19:44 | 46.93730 | -125.50647 | 36355 ft | 405 kts | 334° |
| 2026-04-29 19:44 | 46.98899 | -125.53964 | 36352 ft | 406 kts | 333° |
| 2026-04-29 19:45 | 47.04075 | -125.57293 | 36365 ft | 407 kts | 333° |
| 2026-04-29 19:45 | 47.09256 | -125.60632 | 36356 ft | 407 kts | 333° |
| 2026-04-29 19:46 | 47.14445 | -125.63983 | 36358 ft | 407 kts | 333° |
| 2026-04-29 19:46 | 47.19636 | -125.67342 | 36355 ft | 408 kts | 333° |
| 2026-04-29 19:47 | 47.24836 | -125.70709 | 36363 ft | 408 kts | 333° |
| 2026-04-29 19:47 | 47.30020 | -125.74082 | 36359 ft | 407 kts | 333° |
| 2026-04-29 19:48 | 47.35195 | -125.77455 | 36359 ft | 406 kts | 333° |
| 2026-04-29 19:48 | 47.40329 | -125.80806 | 36354 ft | 406 kts | 333° |
| 2026-04-29 19:49 | 47.45532 | -125.84212 | 36362 ft | 407 kts | 333° |
| 2026-04-29 19:49 | 47.50675 | -125.87584 | 36362 ft | 407 kts | 333° |
| 2026-04-29 19:50 | 47.55855 | -125.90988 | 36363 ft | 408 kts | 333° |
| 2026-04-29 19:50 | 47.61040 | -125.94402 | 36365 ft | 408 kts | 333° |
| 2026-04-29 19:51 | 47.66221 | -125.97821 | 36368 ft | 408 kts | 333° |
| 2026-04-29 19:51 | 47.71406 | -126.01250 | 36363 ft | 408 kts | 333° |
| 2026-04-29 19:52 | 47.76586 | -126.04683 | 36359 ft | 408 kts | 333° |
| 2026-04-29 19:52 | 47.81772 | -126.08129 | 36362 ft | 408 kts | 333° |
| 2026-04-29 19:53 | 47.86962 | -126.11584 | 36383 ft | 409 kts | 333° |
| 2026-04-29 19:53 | 47.92147 | -126.15043 | 36365 ft | 408 kts | 333° |
| 2026-04-29 19:54 | 47.99897 | -126.20227 | 36357 ft | 406 kts | 332° |
| 2026-04-29 19:54 | 48.05055 | -126.23687 | 36361 ft | 406 kts | 333° |
| 2026-04-29 19:55 | 48.10213 | -126.27156 | 36362 ft | 407 kts | 332° |
| 2026-04-29 19:55 | 48.15373 | -126.30633 | 36362 ft | 407 kts | 332° |
| 2026-04-29 19:56 | 48.20534 | -126.34119 | 36361 ft | 407 kts | 332° |
| 2026-04-29 19:56 | 48.25705 | -126.37619 | 36364 ft | 408 kts | 332° |
| 2026-04-29 19:57 | 48.30009 | -126.40538 | 36365 ft | 409 kts | 332° |
| 2026-04-29 19:57 | 48.36074 | -126.44662 | 36364 ft | 409 kts | 332° |
| 2026-04-29 19:58 | 48.41266 | -126.48200 | 36361 ft | 410 kts | 332° |
| 2026-04-29 19:58 | 48.46461 | -126.51747 | 36362 ft | 411 kts | 332° |
| 2026-04-29 19:59 | 48.51667 | -126.55311 | 36361 ft | 411 kts | 332° |
| 2026-04-29 19:59 | 48.56872 | -126.58882 | 36363 ft | 411 kts | 332° |
| 2026-04-29 20:00 | 48.62081 | -126.62464 | 36366 ft | 411 kts | 332° |
| 2026-04-29 20:00 | 48.67290 | -126.66054 | 36363 ft | 412 kts | 331° |
| 2026-04-29 20:01 | 48.72509 | -126.69659 | 36364 ft | 413 kts | 331° |
| 2026-04-29 20:01 | 48.77797 | -126.73095 | 36360 ft | 414 kts | 334° |
| 2026-04-29 20:02 | 48.83179 | -126.76250 | 36362 ft | 415 kts | 335° |
| 2026-04-29 20:02 | 48.87665 | -126.78860 | 36356 ft | 416 kts | 334° |
| 2026-04-29 20:03 | 48.93936 | -126.82556 | 36353 ft | 417 kts | 334° |
| 2026-04-29 20:03 | 48.99350 | -126.85773 | 36272 ft | 419 kts | 334° |
| 2026-04-29 20:04 | 49.04779 | -126.88982 | 36268 ft | 418 kts | 334° |
| 2026-04-29 20:04 | 49.10221 | -126.92104 | 36275 ft | 419 kts | 335° |
| 2026-04-29 20:05 | 49.15764 | -126.94981 | 36209 ft | 421 kts | 338° |
| 2026-04-29 20:05 | 49.21452 | -126.97051 | 36180 ft | 424 kts | 349° |
| 2026-04-29 20:06 | 49.24427 | -126.97024 | 35584 ft | 435 kts | 4° |
| 2026-04-29 20:06 | 49.27378 | -126.95541 | 33858 ft | 465 kts | 24° |
| 2026-04-29 20:06 | 49.29948 | -126.92243 | 31322 ft | 506 kts | 48° |
| 2026-04-29 20:06 | 49.31546 | -126.87331 | 29383 ft | 526 kts | 73° |
| 2026-04-29 20:07 | 49.32323 | -126.82173 | 30589 ft | 453 kts | 61° |
| 2026-04-29 20:07 | 49.33884 | -126.78388 | 32178 ft | 391 kts | 38° |
| 2026-04-29 20:07 | 49.35933 | -126.76225 | 33948 ft | 330 kts | 12° |
| 2026-04-29 20:07 | 49.38043 | -126.75579 | 34816 ft | 306 kts | 354° |
| 2026-04-29 20:08 | 49.40278 | -126.75658 | 33970 ft | 340 kts | 349° |
| 2026-04-29 20:08 | 49.41848 | -126.76136 | 33404 ft | 356 kts | 334° |
| 2026-04-29 20:08 | 49.44593 | -126.79145 | 33208 ft | 371 kts | 315° |
| 2026-04-29 20:08 | 49.46427 | -126.82005 | 33286 ft | 381 kts | 313° |
| 2026-04-29 20:09 | 49.50116 | -126.88086 | 33518 ft | 396 kts | 313° |
| 2026-04-29 20:09 | 49.52000 | -126.91214 | 33752 ft | 400 kts | 313° |
| 2026-04-29 20:09 | 49.53898 | -126.94352 | 34057 ft | 402 kts | 313° |
| 2026-04-29 20:10 | 49.55809 | -126.97492 | 34394 ft | 402 kts | 313° |
| 2026-04-29 20:10 | 49.57733 | -127.00634 | 34663 ft | 403 kts | 313° |
| 2026-04-29 20:10 | 49.59668 | -127.03770 | 34901 ft | 405 kts | 313° |
| 2026-04-29 20:10 | 49.61623 | -127.06917 | 35119 ft | 407 kts | 313° |
| 2026-04-29 20:11 | 49.63589 | -127.10060 | 35338 ft | 408 kts | 313° |
| 2026-04-29 20:11 | 49.65572 | -127.13207 | 35590 ft | 408 kts | 313° |
| 2026-04-29 20:11 | 49.67556 | -127.16333 | 35926 ft | 406 kts | 313° |
| 2026-04-29 20:11 | 49.69536 | -127.19428 | 36283 ft | 404 kts | 313° |
| 2026-04-29 20:12 | 49.73528 | -127.25607 | 36353 ft | 406 kts | 313° |
| 2026-04-29 20:12 | 49.77753 | -127.31381 | 36353 ft | 406 kts | 321° |
| 2026-04-29 20:13 | 49.81739 | -127.35235 | 36358 ft | 408 kts | 328° |
| 2026-04-29 20:13 | 49.87722 | -127.39571 | 36347 ft | 409 kts | 333° |
| 2026-04-29 20:14 | 49.92991 | -127.42908 | 36349 ft | 409 kts | 334° |
| 2026-04-29 20:14 | 49.98292 | -127.46188 | 36349 ft | 410 kts | 333° |
| 2026-04-29 20:15 | 50.03606 | -127.49487 | 36353 ft | 412 kts | 333° |
| 2026-04-29 20:15 | 50.08947 | -127.52829 | 36352 ft | 415 kts | 333° |
| 2026-04-29 20:16 | 50.14310 | -127.56207 | 36347 ft | 417 kts | 333° |
| 2026-04-29 20:16 | 50.19693 | -127.59582 | 36380 ft | 415 kts | 333° |
| 2026-04-29 20:17 | 50.25081 | -127.62970 | 36344 ft | 419 kts | 333° |
| 2026-04-29 20:17 | 50.30487 | -127.66404 | 36361 ft | 420 kts | 333° |
| 2026-04-29 20:18 | 50.35909 | -127.69850 | 36364 ft | 421 kts | 333° |
| 2026-04-29 20:18 | 50.41153 | -127.73181 | 36360 ft | 419 kts | 333° |
| 2026-04-29 20:19 | 50.46272 | -127.76448 | 36335 ft | 419 kts | 333° |
| 2026-04-29 20:19 | 50.51659 | -127.79882 | 36348 ft | 418 kts | 333° |
| 2026-04-29 20:20 | 50.57048 | -127.83332 | 36348 ft | 418 kts | 333° |
| 2026-04-29 20:20 | 50.62431 | -127.86790 | 36356 ft | 418 kts | 333° |
| 2026-04-29 20:21 | 50.67820 | -127.90256 | 36345 ft | 418 kts | 333° |
| 2026-04-29 20:21 | 50.73215 | -127.93730 | 36358 ft | 419 kts | 333° |
| 2026-04-29 20:22 | 50.78581 | -127.97198 | 36356 ft | 420 kts | 333° |
| 2026-04-29 20:22 | 50.83991 | -128.00704 | 36362 ft | 420 kts | 333° |
| 2026-04-29 20:23 | 50.89404 | -128.04220 | 36363 ft | 421 kts | 333° |
| 2026-04-29 20:23 | 50.94824 | -128.07751 | 36369 ft | 422 kts | 332° |
| 2026-04-29 20:24 | 51.00259 | -128.11297 | 36391 ft | 422 kts | 333° |
| 2026-04-29 20:24 | 51.05685 | -128.14849 | 36374 ft | 422 kts | 333° |
| 2026-04-29 20:25 | 51.10190 | -128.17806 | 36372 ft | 421 kts | 333° |
| 2026-04-29 20:25 | 51.15598 | -128.21363 | 36370 ft | 421 kts | 333° |
| 2026-04-29 20:26 | 51.21013 | -128.24935 | 36378 ft | 421 kts | 333° |
| 2026-04-29 20:26 | 51.26431 | -128.28517 | 36375 ft | 422 kts | 332° |
| 2026-04-29 20:27 | 51.30973 | -128.31527 | 36374 ft | 422 kts | 332° |
| 2026-04-29 20:27 | 51.37282 | -128.35717 | 36382 ft | 423 kts | 332° |
| 2026-04-29 20:28 | 51.42720 | -128.39340 | 36375 ft | 424 kts | 332° |
| 2026-04-29 20:28 | 51.48168 | -128.42979 | 36373 ft | 425 kts | 332° |
| 2026-04-29 20:29 | 51.53626 | -128.46634 | 36372 ft | 425 kts | 332° |
| 2026-04-29 20:29 | 51.59092 | -128.50303 | 36372 ft | 426 kts | 332° |
| 2026-04-29 20:30 | 51.64561 | -128.53979 | 36379 ft | 426 kts | 332° |
| 2026-04-29 20:30 | 51.70027 | -128.57669 | 36372 ft | 426 kts | 332° |
| 2026-04-29 20:31 | 51.75493 | -128.61370 | 36374 ft | 426 kts | 332° |
| 2026-04-29 20:31 | 51.80948 | -128.65072 | 36361 ft | 425 kts | 332° |
| 2026-04-29 20:32 | 51.86402 | -128.68782 | 36369 ft | 425 kts | 332° |
| 2026-04-29 20:32 | 51.91863 | -128.72507 | 36363 ft | 426 kts | 332° |
| 2026-04-29 20:33 | 51.97331 | -128.76247 | 36369 ft | 427 kts | 332° |
| 2026-04-29 20:33 | 52.02805 | -128.80000 | 36367 ft | 427 kts | 332° |
| 2026-04-29 20:34 | 52.08286 | -128.83769 | 36367 ft | 428 kts | 332° |
| 2026-04-29 20:34 | 52.13770 | -128.87549 | 36368 ft | 428 kts | 332° |
| 2026-04-29 20:35 | 52.19252 | -128.91338 | 36354 ft | 428 kts | 332° |
| 2026-04-29 20:35 | 52.24700 | -128.95113 | 36364 ft | 428 kts | 332° |
| 2026-04-29 20:36 | 52.30175 | -128.98909 | 36364 ft | 427 kts | 332° |
| 2026-04-29 20:36 | 52.35637 | -129.02719 | 36358 ft | 426 kts | 332° |
| 2026-04-29 20:37 | 52.41089 | -129.06531 | 36354 ft | 426 kts | 332° |
| 2026-04-29 20:37 | 52.46541 | -129.10352 | 36361 ft | 426 kts | 332° |
| 2026-04-29 20:38 | 52.51989 | -129.14179 | 36354 ft | 426 kts | 332° |
| 2026-04-29 20:38 | 52.57434 | -129.18015 | 36368 ft | 426 kts | 332° |
| 2026-04-29 20:39 | 52.62892 | -129.21870 | 36362 ft | 427 kts | 332° |
| 2026-04-29 20:39 | 52.68366 | -129.25747 | 36359 ft | 429 kts | 332° |
| 2026-04-29 20:40 | 52.73850 | -129.29642 | 36364 ft | 430 kts | 332° |
| 2026-04-29 20:40 | 52.79350 | -129.33558 | 36354 ft | 431 kts | 332° |
| 2026-04-29 20:41 | 52.84858 | -129.37491 | 36365 ft | 432 kts | 332° |
| 2026-04-29 20:41 | 52.90385 | -129.41450 | 36360 ft | 433 kts | 332° |
| 2026-04-29 20:42 | 52.95915 | -129.45418 | 36362 ft | 433 kts | 332° |
| 2026-04-29 20:42 | 53.01434 | -129.49391 | 36355 ft | 432 kts | 332° |
| 2026-04-29 20:43 | 53.06937 | -129.53365 | 36363 ft | 431 kts | 332° |
| 2026-04-29 20:43 | 53.12434 | -129.57346 | 36359 ft | 431 kts | 331° |
| 2026-04-29 20:44 | 53.17927 | -129.61335 | 36358 ft | 431 kts | 331° |
| 2026-04-29 20:44 | 53.23416 | -129.65332 | 36356 ft | 430 kts | 331° |
| 2026-04-29 20:45 | 53.28903 | -129.69339 | 36356 ft | 430 kts | 331° |
| 2026-04-29 20:45 | 53.34357 | -129.73333 | 36367 ft | 431 kts | 331° |
| 2026-04-29 20:46 | 53.39868 | -129.77382 | 36361 ft | 433 kts | 331° |
| 2026-04-29 20:46 | 53.45432 | -129.81481 | 36355 ft | 434 kts | 331° |
| 2026-04-29 20:47 | 53.50936 | -129.85545 | 36345 ft | 435 kts | 331° |
| 2026-04-29 20:47 | 53.56482 | -129.89651 | 36352 ft | 436 kts | 330° |
| 2026-04-29 20:48 | 53.62039 | -129.93777 | 36346 ft | 436 kts | 330° |
| 2026-04-29 20:48 | 53.67583 | -129.97907 | 36330 ft | 435 kts | 330° |
| 2026-04-29 20:49 | 53.73110 | -130.02044 | 36338 ft | 434 kts | 330° |
| 2026-04-29 20:49 | 53.78624 | -130.06178 | 36352 ft | 432 kts | 330° |
| 2026-04-29 20:50 | 53.84129 | -130.10312 | 36356 ft | 433 kts | 330° |
| 2026-04-29 20:50 | 53.89642 | -130.14460 | 36338 ft | 434 kts | 330° |
| 2026-04-29 20:51 | 53.95165 | -130.18634 | 36344 ft | 435 kts | 330° |
| 2026-04-29 20:51 | 54.00693 | -130.22826 | 36342 ft | 436 kts | 330° |
| 2026-04-29 20:52 | 54.06234 | -130.27039 | 36350 ft | 437 kts | 329° |
| 2026-04-29 20:52 | 54.11788 | -130.31274 | 36346 ft | 438 kts | 329° |
| 2026-04-29 20:53 | 54.17361 | -130.35536 | 36343 ft | 439 kts | 329° |
| 2026-04-29 20:53 | 54.22943 | -130.39817 | 36340 ft | 440 kts | 329° |
| 2026-04-29 20:54 | 54.30958 | -130.47206 | 36360 ft | 432 kts | 321° |
| 2026-04-29 20:55 | 54.35980 | -130.52865 | 36344 ft | 431 kts | 320° |
| 2026-04-29 20:55 | 54.40959 | -130.58480 | 36340 ft | 431 kts | 321° |
| 2026-04-29 20:56 | 54.45983 | -130.64090 | 36343 ft | 431 kts | 321° |
| 2026-04-29 20:56 | 54.51011 | -130.69682 | 36344 ft | 430 kts | 321° |
| 2026-04-29 20:57 | 54.56032 | -130.75273 | 36344 ft | 430 kts | 321° |
| 2026-04-29 20:57 | 54.61047 | -130.80874 | 36352 ft | 430 kts | 321° |
| 2026-04-29 20:58 | 54.66067 | -130.86498 | 36347 ft | 430 kts | 321° |
| 2026-04-29 20:58 | 54.71078 | -130.92130 | 36348 ft | 430 kts | 321° |
| 2026-04-29 20:59 | 54.76087 | -130.97776 | 36365 ft | 430 kts | 320° |
| 2026-04-29 20:59 | 54.81103 | -131.03448 | 36349 ft | 431 kts | 320° |
| 2026-04-29 21:00 | 54.86131 | -131.09152 | 36341 ft | 432 kts | 320° |
| 2026-04-29 21:00 | 54.91173 | -131.14887 | 36343 ft | 434 kts | 320° |
| 2026-04-29 21:01 | 54.96221 | -131.20646 | 36342 ft | 434 kts | 320° |
| 2026-04-29 21:01 | 55.01275 | -131.26430 | 36349 ft | 436 kts | 320° |
| 2026-04-29 21:02 | 55.06345 | -131.32250 | 36339 ft | 437 kts | 320° |
| 2026-04-29 21:02 | 55.11425 | -131.38100 | 36336 ft | 438 kts | 320° |
| 2026-04-29 21:03 | 55.16511 | -131.43975 | 36340 ft | 439 kts | 320° |
| 2026-04-29 21:03 | 55.21603 | -131.49873 | 36349 ft | 439 kts | 320° |
| 2026-04-29 21:04 | 55.26697 | -131.55793 | 36332 ft | 440 kts | 319° |
| 2026-04-29 21:04 | 55.31798 | -131.61743 | 36346 ft | 440 kts | 319° |
| 2026-04-29 21:05 | 55.36902 | -131.67712 | 36350 ft | 441 kts | 319° |
| 2026-04-29 21:05 | 55.42014 | -131.73711 | 36337 ft | 442 kts | 319° |
| 2026-04-29 21:06 | 55.47092 | -131.79687 | 36359 ft | 442 kts | 319° |
| 2026-04-29 21:06 | 55.52207 | -131.85726 | 36348 ft | 443 kts | 319° |
| 2026-04-29 21:07 | 55.57327 | -131.91790 | 36336 ft | 443 kts | 319° |
| 2026-04-29 21:07 | 55.61617 | -131.96886 | 36334 ft | 443 kts | 319° |
| 2026-04-29 21:08 | 55.67565 | -132.03974 | 36339 ft | 443 kts | 319° |
| 2026-04-29 21:08 | 55.72675 | -132.10087 | 36330 ft | 445 kts | 318° |
| 2026-04-29 21:09 | 55.77804 | -132.16243 | 36343 ft | 445 kts | 318° |
| 2026-04-29 21:09 | 55.82949 | -132.22435 | 36329 ft | 447 kts | 318° |
| 2026-04-29 21:10 | 55.88097 | -132.28652 | 36322 ft | 448 kts | 318° |
| 2026-04-29 21:10 | 55.93251 | -132.34895 | 36352 ft | 448 kts | 318° |
| 2026-04-29 21:11 | 55.98420 | -132.41180 | 36330 ft | 450 kts | 318° |
| 2026-04-29 21:11 | 56.03601 | -132.47498 | 36327 ft | 451 kts | 318° |
| 2026-04-29 21:12 | 56.08792 | -132.53850 | 36313 ft | 452 kts | 318° |
| 2026-04-29 21:12 | 56.13105 | -132.59142 | 36310 ft | 452 kts | 318° |
| 2026-04-29 21:13 | 56.18287 | -132.65525 | 36328 ft | 451 kts | 317° |
| 2026-04-29 21:13 | 56.23471 | -132.71927 | 36308 ft | 453 kts | 317° |
| 2026-04-29 21:14 | 56.28672 | -132.78372 | 36320 ft | 454 kts | 317° |
| 2026-04-29 21:14 | 56.33862 | -132.84823 | 36303 ft | 452 kts | 317° |
| 2026-04-29 21:15 | 56.39019 | -132.91253 | 36308 ft | 450 kts | 317° |
| 2026-04-29 21:15 | 56.44166 | -132.97699 | 36311 ft | 451 kts | 317° |
| 2026-04-29 21:16 | 56.49318 | -133.04172 | 36305 ft | 451 kts | 317° |
| 2026-04-29 21:16 | 56.54473 | -133.10670 | 36302 ft | 452 kts | 317° |
| 2026-04-29 21:17 | 56.59631 | -133.17193 | 36281 ft | 452 kts | 317° |
| 2026-04-29 21:17 | 56.64782 | -133.23729 | 36304 ft | 453 kts | 317° |
| 2026-04-29 21:18 | 56.69959 | -133.30323 | 36310 ft | 455 kts | 317° |
| 2026-04-29 21:18 | 56.75153 | -133.36960 | 36290 ft | 457 kts | 317° |
| 2026-04-29 21:19 | 56.80324 | -133.43589 | 36289 ft | 458 kts | 317° |
| 2026-04-29 21:19 | 56.85533 | -133.50289 | 36285 ft | 458 kts | 317° |
| 2026-04-29 21:20 | 56.90743 | -133.57012 | 36284 ft | 458 kts | 317° |
| 2026-04-29 21:20 | 56.95944 | -133.63749 | 36297 ft | 458 kts | 317° |
| 2026-04-29 21:21 | 57.01137 | -133.70499 | 36302 ft | 457 kts | 317° |
| 2026-04-29 21:21 | 57.06321 | -133.77263 | 36311 ft | 458 kts | 317° |
| 2026-04-29 21:22 | 57.11521 | -133.84074 | 36063 ft | 463 kts | 317° |
| 2026-04-29 21:22 | 57.14163 | -133.87552 | 35290 ft | 468 kts | 316° |
| 2026-04-29 21:22 | 57.16809 | -133.91031 | 34501 ft | 468 kts | 316° |
| 2026-04-29 21:22 | 57.19464 | -133.94527 | 33569 ft | 470 kts | 317° |
| 2026-04-29 21:23 | 57.22123 | -133.98034 | 32605 ft | 471 kts | 317° |
| 2026-04-29 21:23 | 57.24795 | -134.01566 | 31644 ft | 473 kts | 317° |
| 2026-04-29 21:23 | 57.27469 | -134.05109 | 30668 ft | 475 kts | 318° |
| 2026-04-29 21:23 | 57.30163 | -134.08685 | 29457 ft | 479 kts | 318° |
| 2026-04-29 21:24 | 57.32877 | -134.12293 | 28251 ft | 481 kts | 318° |
| 2026-04-29 21:24 | 57.35602 | -134.15922 | 27209 ft | 482 kts | 318° |
| 2026-04-29 21:24 | 57.38304 | -134.19521 | 26365 ft | 476 kts | 318° |
| 2026-04-29 21:24 | 57.40976 | -134.23085 | 25503 ft | 471 kts | 318° |
| 2026-04-29 21:25 | 57.43618 | -134.26620 | 24681 ft | 466 kts | 318° |
| 2026-04-29 21:25 | 57.46238 | -134.30134 | 23812 ft | 463 kts | 318° |
| 2026-04-29 21:25 | 57.48842 | -134.33635 | 22823 ft | 460 kts | 318° |
| 2026-04-29 21:25 | 57.51415 | -134.37097 | 21946 ft | 454 kts | 319° |
| 2026-04-29 21:26 | 57.53957 | -134.40523 | 21111 ft | 448 kts | 319° |
| 2026-04-29 21:26 | 57.56467 | -134.43917 | 20293 ft | 443 kts | 319° |
| 2026-04-29 21:26 | 57.58949 | -134.47277 | 19464 ft | 440 kts | 319° |
| 2026-04-29 21:26 | 57.61416 | -134.50626 | 18608 ft | 437 kts | 319° |
| 2026-04-29 21:27 | 57.63830 | -134.53906 | 17677 ft | 433 kts | 319° |
| 2026-04-29 21:27 | 57.66249 | -134.57199 | 16827 ft | 427 kts | 319° |
| 2026-04-29 21:27 | 57.68635 | -134.60450 | 15969 ft | 422 kts | 319° |
| 2026-04-29 21:27 | 57.70996 | -134.63631 | 15119 ft | 416 kts | 321° |
| 2026-04-29 21:28 | 57.73354 | -134.66655 | 14398 ft | 407 kts | 320° |
| 2026-04-29 21:28 | 57.75732 | -134.69520 | 13533 ft | 408 kts | 327° |
| 2026-04-29 21:28 | 57.78303 | -134.71751 | 12705 ft | 406 kts | 333° |
| 2026-04-29 21:28 | 57.80921 | -134.73666 | 11907 ft | 402 kts | 336° |
| 2026-04-29 21:29 | 57.83527 | -134.75481 | 11165 ft | 397 kts | 336° |
| 2026-04-29 21:29 | 57.86066 | -134.77264 | 10899 ft | 380 kts | 335° |
| 2026-04-29 21:29 | 57.88483 | -134.79003 | 10688 ft | 363 kts | 335° |
| 2026-04-29 21:29 | 57.90784 | -134.80697 | 10514 ft | 347 kts | 334° |
| 2026-04-29 21:30 | 57.92978 | -134.82342 | 10366 ft | 332 kts | 334° |
| 2026-04-29 21:30 | 57.95082 | -134.83935 | 10216 ft | 319 kts | 334° |
| 2026-04-29 21:30 | 57.97093 | -134.85467 | 10098 ft | 306 kts | 333° |
| 2026-04-29 21:30 | 57.99095 | -134.87002 | 9537 ft | 311 kts | 333° |
| 2026-04-29 21:31 | 58.01096 | -134.88539 | 9096 ft | 311 kts | 333° |
| 2026-04-29 21:31 | 58.03093 | -134.90073 | 8695 ft | 309 kts | 333° |
| 2026-04-29 21:31 | 58.05079 | -134.91598 | 8319 ft | 307 kts | 333° |
| 2026-04-29 21:31 | 58.07050 | -134.93111 | 7920 ft | 305 kts | 333° |
| 2026-04-29 21:32 | 58.09010 | -134.94621 | 7534 ft | 303 kts | 334° |
| 2026-04-29 21:32 | 58.10956 | -134.96120 | 7154 ft | 301 kts | 334° |
| 2026-04-29 21:32 | 58.12889 | -134.97610 | 6810 ft | 299 kts | 334° |
| 2026-04-29 21:32 | 58.14814 | -134.99095 | 6391 ft | 299 kts | 334° |
| 2026-04-29 21:33 | 58.16738 | -135.00582 | 5984 ft | 297 kts | 335° |
| 2026-04-29 21:33 | 58.18645 | -135.02057 | 5611 ft | 295 kts | 335° |
| 2026-04-29 21:33 | 58.20539 | -135.03523 | 5257 ft | 293 kts | 335° |
| 2026-04-29 21:33 | 58.22421 | -135.04798 | 4901 ft | 291 kts | 349° |
| 2026-04-29 21:34 | 58.24422 | -135.04746 | 4565 ft | 286 kts | 11° |
| 2026-04-29 21:34 | 58.26376 | -135.04086 | 4202 ft | 284 kts | 13° |
| 2026-04-29 21:34 | 58.28322 | -135.03398 | 4014 ft | 275 kts | 13° |
| 2026-04-29 21:34 | 58.30145 | -135.02762 | 3880 ft | 265 kts | 13° |
| 2026-04-29 21:35 | 58.31929 | -135.02153 | 3764 ft | 256 kts | 13° |
| 2026-04-29 21:35 | 58.33625 | -135.01421 | 3621 ft | 244 kts | 27° |
| 2026-04-29 21:35 | 58.34893 | -134.99545 | 3495 ft | 223 kts | 60° |
| 2026-04-29 21:35 | 58.35557 | -134.96987 | 3284 ft | 210 kts | 81° |
| 2026-04-29 21:36 | 58.35715 | -134.94320 | 3155 ft | 198 kts | 94° |
| 2026-04-29 21:36 | 58.35723 | -134.91735 | 3004 ft | 191 kts | 94° |
| 2026-04-29 21:36 | 58.35730 | -134.89321 | 2898 ft | 173 kts | 94° |
| 2026-04-29 21:36 | 58.35737 | -134.87145 | 2778 ft | 155 kts | 94° |
| 2026-04-29 21:37 | 58.35742 | -134.85152 | 2638 ft | 149 kts | 94° |
| 2026-04-29 21:37 | 58.35745 | -134.83203 | 2515 ft | 141 kts | 94° |
| 2026-04-29 21:37 | 58.35751 | -134.81508 | 2362 ft | 119 kts | 94° |
| 2026-04-29 21:37 | 58.35755 | -134.79953 | 2189 ft | 119 kts | 94° |
| 2026-04-29 21:38 | 58.35757 | -134.78354 | 2026 ft | 123 kts | 93° |
| 2026-04-29 21:38 | 58.35761 | -134.76718 | 1849 ft | 123 kts | 92° |
| 2026-04-29 21:38 | 58.35764 | -134.75096 | 1670 ft | 123 kts | 92° |
| 2026-04-29 21:38 | 58.35768 | -134.73463 | 1507 ft | 124 kts | 92° |
| 2026-04-29 21:39 | 58.35771 | -134.71818 | 1333 ft | 125 kts | 92° |
| 2026-04-29 21:39 | 58.35774 | -134.70163 | 1142 ft | 124 kts | 91° |
| 2026-04-29 21:39 | 58.35777 | -134.68532 | 980 ft | 122 kts | 92° |
| 2026-04-29 21:39 | 58.35781 | -134.66932 | 858 ft | 115 kts | 95° |
| 2026-04-29 21:40 | 58.35752 | -134.65412 | 815 ft | 117 kts | 98° |
| 2026-04-29 21:40 | 58.35794 | -134.63857 | 584 ft | 128 kts | 75° |
| 2026-04-29 21:40 | 58.36020 | -134.62248 | 404 ft | 126 kts | 86° |
| 2026-04-29 21:40 | 58.35930 | -134.60698 | 150 ft | 114 kts | 104° |
| 2026-04-29 21:41 | 58.35723 | -134.59286 | 37 ft | 110 kts | 105° |
| 2026-04-29 21:41 | 58.35575 | -134.58223 | 31 ft | 25 kts | 104° |
| 2026-04-29 21:41 | 58.35602 | -134.58053 | 32 ft | 2 kts | 19° |
| 2026-04-29 21:41 | 58.35603 | -134.58052 | 33 ft | 0 kts | 19° |
| 2026-04-29 21:42 | 58.35625 | -134.58039 | 33 ft | 9 kts | 12° |
| 2026-04-29 21:42 | 58.35675 | -134.58124 | 32 ft | 16 kts | 286° |
| 2026-04-29 21:42 | 58.35702 | -134.58274 | 33 ft | 8 kts | 309° |
| 2026-04-29 21:42 | 58.35723 | -134.58298 | 33 ft | 3 kts | 345° |
| 2026-04-29 21:43 | 58.35765 | -134.58333 | 32 ft | 6 kts | 308° |
| 2026-04-29 21:43 | 58.35773 | -134.58368 | 32 ft | 3 kts | 289° |
| 2026-04-29 21:43 | 58.35804 | -134.58412 | 33 ft | 3 kts | 34° |
| 2026-04-29 21:43 | 58.35818 | -134.58383 | 32 ft | 7 kts | 36° |
| 2026-04-29 21:44 | 58.35832 | -134.58370 | 33 ft | 0 kts | 24° |
| 2026-04-29 21:44 | 58.35833 | -134.58369 | 33 ft | 0 kts | 23° |